createdAt,value
2022-12-11T00:01:24.545Z,64.53
2022-12-11T00:03:51.287Z,66.80
2022-12-11T00:06:21.697Z,63.60
2022-12-11T00:08:50.969Z,71.47
2022-12-11T00:11:17.388Z,64.38
2022-12-11T00:13:44.282Z,68.18
2022-12-11T00:16:11.287Z,61.55
2022-12-11T00:18:37.915Z,73.80
2022-12-11T00:21:06.702Z,74.95
2022-12-11T00:23:35.478Z,73.15
2022-12-11T00:26:06.573Z,74.38
2022-12-11T00:28:33.045Z,74.60
2022-12-11T00:30:59.716Z,79.22
2022-12-11T00:33:27.133Z,76.82
2022-12-11T00:35:53.437Z,79.10
2022-12-11T00:38:21.892Z,80.25
2022-12-11T00:43:16.243Z,71.60
2022-12-11T00:45:44.785Z,79.75
2022-12-11T00:48:12.457Z,76.25
2022-12-11T00:50:39.226Z,59.85
2022-12-11T00:53:06.356Z,74.80
2022-12-11T00:55:37.461Z,74.13
2022-12-11T00:58:04.110Z,75.63
2022-12-11T01:00:30.779Z,68.32
2022-12-11T01:02:57.218Z,71.00
2022-12-11T01:05:23.601Z,70.93
2022-12-11T01:07:50.009Z,72.20
2022-12-11T01:10:25.910Z,69.40
2022-12-11T01:12:55.879Z,68.75
2022-12-11T01:15:24.976Z,72.20
2022-12-11T01:17:52.076Z,72.97
2022-12-11T01:20:20.114Z,76.80
2022-12-11T01:22:46.749Z,73.97
2022-12-11T01:25:13.348Z,75.05
2022-12-11T01:27:39.881Z,74.35
2022-12-11T01:30:08.191Z,74.07
2022-12-11T01:32:35.998Z,78.55
2022-12-11T01:35:07.900Z,69.03
2022-12-11T01:37:35.193Z,76.28
2022-12-11T01:40:02.304Z,76.15
2022-12-11T01:42:29.635Z,71.97
2022-12-11T01:45:24.671Z,76.78
2022-12-11T01:47:57.775Z,73.50
2022-12-11T01:50:24.596Z,68.18
2022-12-11T01:52:51.933Z,74.78
2022-12-11T01:55:19.765Z,75.35
2022-12-11T01:57:49.695Z,63.92
2022-12-11T02:00:16.488Z,68.97
2022-12-11T02:02:42.924Z,75.55
2022-12-11T02:05:09.985Z,75.65
2022-12-11T02:07:58.753Z,66.05
2022-12-11T02:10:37.051Z,65.13
2022-12-11T02:13:18.327Z,73.22
2022-12-11T02:15:54.281Z,66.57
2022-12-11T02:18:50.034Z,72.10
2022-12-11T02:21:28.063Z,64.35
2022-12-11T02:24:19.544Z,60.92
2022-12-11T02:27:30.343Z,59.85
2022-12-11T02:30:01.900Z,60.72
2022-12-11T02:32:58.287Z,63.55
2022-12-11T02:35:27.183Z,60.58
2022-12-11T02:38:01.465Z,64.65
2022-12-11T02:40:31.669Z,61.92
2022-12-11T02:43:02.110Z,61.90
2022-12-11T02:45:29.444Z,63.63
2022-12-11T02:48:00.893Z,62.33
2022-12-11T02:50:28.946Z,59.08
2022-12-11T02:52:58.167Z,64.72
2022-12-11T02:55:28.259Z,63.55
2022-12-11T02:58:17.930Z,65.40
2022-12-11T03:00:45.416Z,63.17
2022-12-11T03:03:12.655Z,62.13
2022-12-11T03:05:39.915Z,61.03
2022-12-11T03:08:06.665Z,67.07
2022-12-11T03:10:33.388Z,68.43
2022-12-11T03:13:00.867Z,64.65
2022-12-11T03:15:39.325Z,68.97
2022-12-11T03:18:08.624Z,69.95
2022-12-11T03:20:41.134Z,65.32
2022-12-11T03:23:18.908Z,73.68
2022-12-11T03:25:58.049Z,70.20
2022-12-11T03:28:35.246Z,74.72
2022-12-11T03:31:08.903Z,76.32
2022-12-11T03:33:38.958Z,80.97
2022-12-11T03:36:11.434Z,88.45
2022-12-11T03:38:45.157Z,93.40
2022-12-11T03:41:14.980Z,90.25
2022-12-11T03:43:41.723Z,91.25
2022-12-11T03:46:09.604Z,97.55
2022-12-11T03:48:38.853Z,91.53
2022-12-11T03:51:06.645Z,99.50
2022-12-11T03:53:35.434Z,98.72
2022-12-11T03:56:05.563Z,94.63
2022-12-11T03:58:32.308Z,95.28
2022-12-11T04:00:58.892Z,103.70
2022-12-11T04:03:25.498Z,84.05
2022-12-11T04:05:53.816Z,94.20
2022-12-11T04:08:22.157Z,88.95
2022-12-11T04:13:15.314Z,99.15
2022-12-11T04:15:41.936Z,103.07
2022-12-11T04:18:27.109Z,87.70
2022-12-11T04:21:13.859Z,116.60
2022-12-11T04:23:58.722Z,100.20
2022-12-11T04:26:25.650Z,93.95
2022-12-11T04:28:52.196Z,92.65
2022-12-11T04:31:21.141Z,99.82
2022-12-11T04:33:47.904Z,105.10
2022-12-11T04:36:15.039Z,107.00
2022-12-11T04:38:41.407Z,95.55
2022-12-11T04:41:11.968Z,102.22
2022-12-11T04:43:39.002Z,102.75
2022-12-11T04:46:16.907Z,94.70
2022-12-11T04:48:44.006Z,107.90
2022-12-11T04:51:10.947Z,101.85
2022-12-11T04:53:37.761Z,104.35
2022-12-11T04:56:09.880Z,110.20
2022-12-11T04:58:37.033Z,101.88
2022-12-11T05:01:17.800Z,107.10
2022-12-11T05:03:45.412Z,107.20
2022-12-11T05:06:12.321Z,106.63
2022-12-11T05:08:40.932Z,115.72
2022-12-11T05:11:10.209Z,100.07
2022-12-11T05:13:36.935Z,114.00
2022-12-11T05:16:05.735Z,96.07
2022-12-11T05:18:32.309Z,96.57
2022-12-11T05:21:00.762Z,90.63
2022-12-11T05:25:58.408Z,96.60
2022-12-11T05:28:26.322Z,102.78
2022-12-11T05:31:00.652Z,102.28
2022-12-11T05:33:27.334Z,101.00
2022-12-11T05:35:53.957Z,86.40
2022-12-11T05:38:20.845Z,108.90
2022-12-11T05:41:04.907Z,105.07
2022-12-11T05:43:33.499Z,107.45
2022-12-11T05:46:16.942Z,105.97
2022-12-11T05:48:46.077Z,98.28
2022-12-11T05:51:14.401Z,112.05
2022-12-11T05:53:42.256Z,115.07
2022-12-11T05:56:13.953Z,110.25
2022-12-11T05:58:41.730Z,96.35
2022-12-11T06:01:10.498Z,101.68
2022-12-11T06:03:37.625Z,102.75
2022-12-11T06:06:05.834Z,105.70
2022-12-11T06:08:33.493Z,95.45
2022-12-11T06:11:00.337Z,101.05
2022-12-11T06:13:27.221Z,88.72
2022-12-11T06:15:53.913Z,84.03
2022-12-11T06:18:20.429Z,92.85
2022-12-11T06:20:49.198Z,101.90
2022-12-11T06:23:15.709Z,87.03
2022-12-11T06:25:42.158Z,95.05
2022-12-11T06:28:08.862Z,86.75
2022-12-11T06:30:38.874Z,95.40
2022-12-11T06:33:05.868Z,98.70
2022-12-11T06:35:34.241Z,88.75
2022-12-11T06:38:05.016Z,89.15
2022-12-11T06:40:31.311Z,93.68
2022-12-11T06:42:57.613Z,97.78
2022-12-11T06:45:24.011Z,93.07
2022-12-11T06:47:50.587Z,87.43
2022-12-11T06:50:16.965Z,92.47
2022-12-11T06:52:43.461Z,92.90
2022-12-11T06:55:10.138Z,84.13
2022-12-11T06:57:36.980Z,88.90
2022-12-11T07:00:04.210Z,88.05
2022-12-11T07:02:30.595Z,96.60
2022-12-11T07:04:56.937Z,87.60
2022-12-11T07:07:23.393Z,96.78
2022-12-11T07:09:49.924Z,90.22
2022-12-11T07:12:17.586Z,90.60
2022-12-11T07:14:43.958Z,77.78
2022-12-11T07:17:10.336Z,80.10
2022-12-11T07:19:36.906Z,84.00
2022-12-11T07:22:03.233Z,76.22
2022-12-11T07:24:29.548Z,81.00
2022-12-11T07:26:55.994Z,74.20
2022-12-11T07:29:22.349Z,81.32
2022-12-11T07:31:48.738Z,81.40
2022-12-11T07:34:15.142Z,73.95
2022-12-11T07:36:41.714Z,73.75
2022-12-11T07:39:09.235Z,86.13
2022-12-11T07:41:35.609Z,83.63
2022-12-11T07:44:02.780Z,76.10
2022-12-11T07:46:31.353Z,80.25
2022-12-11T07:48:58.149Z,77.55
2022-12-11T07:51:28.143Z,81.97
2022-12-11T07:53:57.377Z,82.65
2022-12-11T07:56:24.198Z,80.88
2022-12-11T07:58:50.736Z,83.93
2022-12-11T08:01:20.286Z,83.78
2022-12-11T08:03:47.295Z,73.32
2022-12-11T08:06:14.475Z,84.43
2022-12-11T08:08:42.129Z,73.05
2022-12-11T08:11:11.894Z,86.20
2022-12-11T08:13:38.692Z,78.43
2022-12-11T08:16:06.474Z,75.18
2022-12-11T08:18:34.600Z,81.63
2022-12-11T08:21:13.466Z,90.97
2022-12-11T08:23:40.213Z,83.55
2022-12-11T08:26:09.187Z,87.30
2022-12-11T08:28:35.801Z,87.60
2022-12-11T08:31:05.762Z,87.47
2022-12-11T08:33:32.403Z,93.57
2022-12-11T08:35:58.700Z,87.90
2022-12-11T08:38:25.744Z,71.45
2022-12-11T08:40:52.174Z,82.22
2022-12-11T08:43:18.505Z,82.68
2022-12-11T08:45:46.520Z,75.68
2022-12-11T08:48:12.933Z,80.78
2022-12-11T08:50:39.478Z,77.20
2022-12-11T08:53:05.916Z,86.68
2022-12-11T08:55:33.011Z,81.30
2022-12-11T08:57:59.703Z,83.90
2022-12-11T09:00:26.258Z,72.90
2022-12-11T09:02:52.756Z,85.60
2022-12-11T09:05:19.332Z,87.15
2022-12-11T09:07:45.750Z,85.63
2022-12-11T09:10:12.302Z,87.05
2022-12-11T09:12:38.696Z,87.55
2022-12-11T09:15:05.611Z,79.30
2022-12-11T09:17:33.450Z,86.53
2022-12-11T09:19:59.887Z,74.68
2022-12-11T09:22:26.414Z,76.13
2022-12-11T09:24:53.110Z,87.20
2022-12-11T09:27:21.321Z,81.38
2022-12-11T09:29:47.726Z,85.07
2022-12-11T09:32:14.295Z,84.60
2022-12-11T09:34:40.694Z,79.10
2022-12-11T09:37:07.035Z,81.68
2022-12-11T09:39:33.388Z,80.45
2022-12-11T09:42:21.646Z,80.07
2022-12-11T09:47:25.525Z,64.82
2022-12-11T09:50:02.912Z,51.95
2022-12-11T09:52:37.115Z,39.93
2022-12-11T09:55:14.959Z,48.83
2022-12-11T09:57:55.624Z,49.53
2022-12-11T10:00:31.956Z,46.35
2022-12-11T10:03:34.247Z,45.28
2022-12-11T10:06:28.219Z,46.28
2022-12-11T10:09:22.007Z,97.00
2022-12-11T10:11:56.514Z,61.42
2022-12-11T10:14:33.148Z,56.58
2022-12-11T10:17:11.121Z,48.78
2022-12-11T10:19:40.051Z,46.00
2022-12-11T10:22:17.341Z,47.97
2022-12-11T10:27:40.035Z,39.38
2022-12-11T10:30:16.022Z,40.60
2022-12-11T10:33:04.103Z,42.92
2022-12-11T10:35:39.709Z,42.55
2022-12-11T10:38:16.714Z,41.55
2022-12-11T10:40:45.955Z,36.78
2022-12-11T10:43:12.750Z,32.65
2022-12-11T10:45:39.247Z,37.45
2022-12-11T10:48:09.854Z,31.77
2022-12-11T10:50:37.719Z,35.60
2022-12-11T10:53:05.598Z,36.25
2022-12-11T10:55:44.790Z,30.92
2022-12-11T10:58:18.862Z,42.53
2022-12-11T11:00:46.419Z,33.83
2022-12-11T11:03:22.719Z,31.80
2022-12-11T11:05:50.632Z,29.77
2022-12-11T11:08:22.617Z,33.33
2022-12-11T11:10:58.494Z,32.90
2022-12-11T11:13:28.295Z,32.40
2022-12-11T11:16:12.682Z,32.05
2022-12-11T11:18:41.893Z,37.30
2022-12-11T11:21:22.605Z,32.55
2022-12-11T11:23:53.202Z,32.55
2022-12-11T11:26:23.051Z,39.65
2022-12-11T11:28:54.525Z,30.38
2022-12-11T11:31:30.480Z,29.90
2022-12-11T11:34:04.083Z,30.13
2022-12-11T11:36:33.761Z,38.75
2022-12-11T11:39:12.734Z,36.85
2022-12-11T11:41:52.884Z,33.78
2022-12-11T11:44:31.862Z,31.80
2022-12-11T11:47:14.813Z,35.63
2022-12-11T11:49:55.647Z,33.38
2022-12-11T11:52:30.748Z,32.63
2022-12-11T11:55:10.043Z,33.17
2022-12-11T11:57:56.234Z,37.33
2022-12-11T12:00:31.950Z,32.30
2022-12-11T12:03:10.724Z,32.35
2022-12-11T12:05:45.644Z,29.67
2022-12-11T12:08:46.303Z,30.05
2022-12-11T12:11:23.873Z,42.88
2022-12-11T12:14:51.263Z,34.33
2022-12-11T12:17:26.832Z,36.42
2022-12-11T12:20:13.251Z,30.50
2022-12-11T12:23:00.078Z,28.77
2022-12-11T12:25:40.312Z,33.85
2022-12-11T12:28:21.565Z,29.38
2022-12-11T12:30:58.614Z,28.13
2022-12-11T12:33:52.288Z,32.35
2022-12-11T12:36:32.039Z,32.42
2022-12-11T12:39:26.127Z,33.22
2022-12-11T12:42:07.267Z,31.35
2022-12-11T12:45:15.137Z,32.72
2022-12-11T12:47:53.076Z,30.50
2022-12-11T12:50:26.270Z,28.92
2022-12-11T12:52:55.559Z,27.55
2022-12-11T12:55:32.074Z,27.55
2022-12-11T12:58:02.274Z,28.98
2022-12-11T13:00:39.412Z,27.73
2022-12-11T13:03:12.832Z,32.15
2022-12-11T13:05:43.167Z,28.75
2022-12-11T13:08:11.948Z,30.73
2022-12-11T13:10:41.775Z,28.08
2022-12-11T13:13:38.484Z,29.98
2022-12-11T13:16:16.988Z,29.70
2022-12-11T13:18:45.534Z,35.55
2022-12-11T13:23:54.319Z,29.13
2022-12-11T13:26:33.200Z,30.90
2022-12-11T13:28:59.883Z,28.48
2022-12-11T13:31:33.382Z,29.63
2022-12-11T13:34:08.582Z,27.08
2022-12-11T13:36:37.976Z,27.83
2022-12-11T13:39:25.918Z,30.67
2022-12-11T13:41:55.873Z,30.17
2022-12-11T13:44:32.726Z,29.27
2022-12-11T13:47:03.328Z,29.67
2022-12-11T13:49:35.499Z,28.40
2022-12-11T13:52:03.156Z,32.75
2022-12-11T13:54:34.070Z,31.05
2022-12-11T13:57:13.850Z,31.63
2022-12-11T13:59:43.303Z,33.30
2022-12-11T14:02:49.202Z,38.13
2022-12-11T14:05:16.247Z,35.92
2022-12-11T14:07:51.616Z,34.70
2022-12-11T14:10:21.228Z,33.22
2022-12-11T14:13:00.828Z,31.80
2022-12-11T14:15:29.343Z,33.20
2022-12-11T14:20:33.091Z,29.75
2022-12-11T14:23:18.329Z,31.73
2022-12-11T14:26:00.124Z,34.67
2022-12-11T14:28:29.312Z,30.90
2022-12-11T14:30:59.146Z,28.75
2022-12-11T14:33:32.558Z,30.40
2022-12-11T14:36:00.576Z,35.78
2022-12-11T14:38:44.052Z,29.70
2022-12-11T14:41:18.317Z,38.65
2022-12-11T14:43:52.925Z,30.05
2022-12-11T14:46:28.869Z,30.80
2022-12-11T14:49:04.869Z,32.83
2022-12-11T14:51:36.037Z,31.52
2022-12-11T14:54:03.945Z,31.88
2022-12-11T14:56:31.063Z,29.70
2022-12-11T14:59:19.324Z,34.10
2022-12-11T15:04:15.547Z,31.55
2022-12-11T15:06:47.917Z,32.45
2022-12-11T15:09:37.888Z,32.40
2022-12-11T15:12:11.744Z,34.00
2022-12-11T15:14:48.496Z,31.52
2022-12-11T15:17:15.319Z,37.78
2022-12-11T15:19:51.079Z,32.67
2022-12-11T15:22:19.419Z,33.45
2022-12-11T15:24:49.068Z,34.38
2022-12-11T15:27:33.324Z,42.33
2022-12-11T15:29:59.742Z,33.88
2022-12-11T15:32:26.088Z,34.17
2022-12-11T15:34:53.778Z,32.25
2022-12-11T15:37:30.053Z,33.40
2022-12-11T15:39:58.816Z,33.92
2022-12-11T15:42:35.163Z,32.78
2022-12-11T15:45:02.860Z,32.00
2022-12-11T15:47:30.519Z,32.35
2022-12-11T15:49:59.916Z,34.35
2022-12-11T15:52:26.313Z,36.50
2022-12-11T15:54:52.881Z,34.00
2022-12-11T15:57:24.493Z,35.38
2022-12-11T15:59:52.743Z,34.67
2022-12-11T16:02:19.450Z,32.00
2022-12-11T16:04:45.895Z,33.55
2022-12-11T16:07:23.782Z,38.90
2022-12-11T16:09:50.508Z,39.92
2022-12-11T16:12:17.233Z,36.13
2022-12-11T16:14:45.225Z,34.45
2022-12-11T16:17:14.809Z,30.70
2022-12-11T16:19:45.571Z,33.15
2022-12-11T16:22:13.809Z,35.17
2022-12-11T16:24:45.307Z,37.75
2022-12-11T16:27:11.618Z,35.35
2022-12-11T16:29:40.782Z,38.78
2022-12-11T16:32:10.195Z,36.05
2022-12-11T16:34:37.872Z,36.67
2022-12-11T16:37:06.361Z,38.67
2022-12-11T16:41:59.127Z,40.45
2022-12-11T16:44:27.218Z,39.53
2022-12-11T16:46:54.013Z,35.50
2022-12-11T16:49:21.705Z,37.13
2022-12-11T16:51:49.396Z,39.15
2022-12-11T16:54:16.497Z,32.47
2022-12-11T16:56:43.659Z,36.20
2022-12-11T16:59:10.997Z,36.83
2022-12-11T17:01:37.494Z,34.20
2022-12-11T17:04:03.889Z,37.10
2022-12-11T17:06:30.565Z,40.05
2022-12-11T17:08:58.669Z,36.85
2022-12-11T17:11:26.369Z,39.55
2022-12-11T17:13:54.920Z,42.13
2022-12-11T17:18:48.779Z,34.70
2022-12-11T17:21:18.740Z,51.65
2022-12-11T17:23:45.506Z,63.75
2022-12-11T17:26:14.658Z,61.10
2022-12-11T17:28:42.150Z,55.67
2022-12-11T17:31:16.465Z,52.80
2022-12-11T17:33:44.694Z,44.95
2022-12-11T17:36:14.422Z,46.97
2022-12-11T17:38:41.464Z,46.40
2022-12-11T17:41:15.502Z,41.13
2022-12-11T17:43:47.286Z,45.85
2022-12-11T17:46:14.233Z,42.75
2022-12-11T17:48:40.847Z,44.20
2022-12-11T17:51:09.969Z,45.50
2022-12-11T17:53:39.009Z,43.30
2022-12-11T17:56:07.335Z,45.05
2022-12-11T17:58:34.824Z,43.58
2022-12-11T18:01:06.967Z,44.07
2022-12-11T18:03:33.622Z,43.55
2022-12-11T18:06:04.651Z,40.97
2022-12-11T18:08:31.706Z,43.78
2022-12-11T18:11:05.529Z,41.25
2022-12-11T18:13:32.245Z,44.40
2022-12-11T18:16:00.835Z,42.55
2022-12-11T18:18:27.435Z,41.47
2022-12-11T18:20:53.819Z,47.88
2022-12-11T18:23:20.305Z,54.00
2022-12-11T18:25:47.895Z,41.88
2022-12-11T18:28:14.418Z,48.55
2022-12-11T18:30:40.809Z,45.58
2022-12-11T18:33:08.263Z,47.30
2022-12-11T18:35:34.626Z,41.17
2022-12-11T18:38:01.212Z,42.78
2022-12-11T18:40:28.967Z,43.28
2022-12-11T18:42:55.491Z,50.40
2022-12-11T18:45:22.038Z,45.35
2022-12-11T18:47:52.174Z,53.70
2022-12-11T18:50:19.010Z,48.45
2022-12-11T18:52:45.821Z,47.85
2022-12-11T18:55:12.592Z,46.30
2022-12-11T18:57:39.332Z,46.50
2022-12-11T19:00:07.821Z,42.95
2022-12-11T19:05:01.300Z,44.13
2022-12-11T19:07:27.656Z,45.88
2022-12-11T19:09:54.321Z,40.10
2022-12-11T19:12:22.787Z,42.00
2022-12-11T19:17:16.032Z,41.50
2022-12-11T19:19:44.259Z,39.42
2022-12-11T19:22:10.790Z,37.30
2022-12-11T19:24:37.859Z,40.03
2022-12-11T19:27:08.595Z,37.90
2022-12-11T19:29:38.181Z,48.40
2022-12-11T19:32:06.562Z,40.83
2022-12-11T19:36:59.293Z,38.78
2022-12-11T19:39:25.792Z,43.60
2022-12-11T19:41:52.164Z,44.88
2022-12-11T19:44:18.516Z,45.85
2022-12-11T19:46:45.038Z,41.03
2022-12-11T19:49:12.409Z,44.50
2022-12-11T19:51:40.985Z,47.45
2022-12-11T19:54:11.374Z,47.22
2022-12-11T19:56:38.505Z,53.20
2022-12-11T19:59:08.377Z,53.58
2022-12-11T20:01:37.190Z,40.83
2022-12-11T20:04:08.576Z,43.92
2022-12-11T20:06:39.111Z,40.92
2022-12-11T20:09:07.411Z,45.15
2022-12-11T20:11:33.823Z,46.08
2022-12-11T20:14:01.797Z,47.05
2022-12-11T20:16:53.831Z,44.33
2022-12-11T20:19:15.114Z,45.00
2022-12-11T20:21:42.765Z,42.10
2022-12-11T20:24:10.336Z,43.60
2022-12-11T20:26:38.071Z,45.60
2022-12-11T20:29:07.492Z,50.15
2022-12-11T20:31:35.823Z,46.40
2022-12-11T20:34:02.635Z,48.05
2022-12-11T20:36:29.006Z,42.45
2022-12-11T20:38:55.971Z,47.33
2022-12-11T20:41:24.436Z,47.92
2022-12-11T20:46:21.047Z,43.90
2022-12-11T20:48:48.285Z,48.28
2022-12-11T20:51:20.945Z,57.22
2022-12-11T20:53:58.665Z,53.60
2022-12-11T20:56:28.852Z,53.47
2022-12-11T20:58:55.607Z,55.35
2022-12-11T21:01:24.648Z,53.03
2022-12-11T21:03:53.249Z,53.97
2022-12-11T21:06:32.792Z,50.78
2022-12-11T21:09:14.930Z,51.80
2022-12-11T21:11:41.375Z,49.22
2022-12-11T21:14:07.770Z,50.75
2022-12-11T21:16:36.711Z,54.47
2022-12-11T21:19:04.114Z,52.65
2022-12-11T21:21:39.701Z,53.50
2022-12-11T21:24:09.303Z,50.70
2022-12-11T21:26:35.691Z,51.80
2022-12-11T21:29:02.009Z,48.53
2022-12-11T21:31:28.892Z,47.78
2022-12-11T21:33:55.357Z,55.55
2022-12-11T21:36:21.888Z,55.22
2022-12-11T21:38:48.526Z,68.78
2022-12-11T21:41:18.229Z,62.22
2022-12-11T21:44:49.817Z,61.53
2022-12-11T21:46:33.546Z,52.65
2022-12-11T21:49:01.241Z,52.72
2022-12-11T21:51:38.565Z,56.65
2022-12-11T21:54:10.171Z,54.08
2022-12-11T21:56:36.591Z,52.47
2022-12-11T21:59:03.438Z,53.17
2022-12-11T22:01:33.654Z,55.85
2022-12-11T22:04:01.547Z,53.88
2022-12-11T22:06:28.220Z,54.85
2022-12-11T22:08:54.682Z,57.38
2022-12-11T22:11:28.518Z,51.42
2022-12-11T22:13:55.576Z,49.42
2022-12-11T22:16:22.133Z,52.25
2022-12-11T22:18:48.874Z,54.13
2022-12-11T22:21:15.712Z,56.03
2022-12-11T22:23:43.305Z,59.45
2022-12-11T22:26:15.385Z,53.58
2022-12-11T22:28:42.157Z,70.28
2022-12-11T22:31:13.913Z,59.92
2022-12-11T22:33:42.879Z,53.67
2022-12-11T22:36:13.314Z,53.13
2022-12-11T22:38:42.327Z,48.83
2022-12-11T22:41:10.923Z,48.05
2022-12-11T22:43:37.272Z,53.33
2022-12-11T22:46:03.895Z,44.10
2022-12-11T22:48:30.301Z,46.80
2022-12-11T22:50:56.902Z,52.42
2022-12-11T22:53:23.317Z,48.45
2022-12-11T22:55:49.787Z,52.10
2022-12-11T22:58:21.502Z,50.83
2022-12-11T23:00:49.961Z,55.97
2022-12-11T23:03:16.541Z,59.35
2022-12-11T23:05:43.344Z,52.83
2022-12-11T23:08:09.962Z,54.58
2022-12-11T23:10:39.759Z,48.80
2022-12-11T23:13:06.324Z,53.08
2022-12-11T23:15:32.673Z,54.28
2022-12-11T23:17:58.962Z,63.28
2022-12-11T23:20:25.333Z,55.97
2022-12-11T23:22:51.755Z,59.50
2022-12-11T23:25:18.626Z,58.50
2022-12-11T23:27:45.340Z,52.88
2022-12-11T23:30:14.093Z,50.63
2022-12-11T23:32:40.442Z,52.17
2022-12-11T23:35:07.170Z,52.17
2022-12-11T23:37:33.657Z,54.72
2022-12-11T23:40:00.049Z,50.90
2022-12-11T23:42:26.584Z,50.85
2022-12-11T23:44:54.812Z,57.38
2022-12-11T23:47:21.125Z,56.25
2022-12-11T23:49:47.495Z,56.28
2022-12-11T23:52:13.806Z,52.30
2022-12-11T23:54:41.269Z,52.63
2022-12-11T23:57:11.691Z,55.50
2022-12-11T23:59:38.222Z,61.03
